Time;durP1;ratioP1;P1;durP2;ratioP2;P2;SDS_P1;SDS_P2;PMS_P1;PMS_P2;Temp;Humidity;BMP_temperature;BMP_pressure;BME280_temperature;BME280_humidity;BME280_pressure;Samples;Min_cycle;Max_cycle;Signal;HPM_P1;HPM_P2
2023/01/20 00:01:11;;;;;;;18.63;9.30;;;2.50;99.90;;;;;;5043833;28;20028;-68
2023/01/20 00:03:41;;;;;;;24.02;10.80;;;2.50;99.90;;;;;;5061092;28;20102;-70
2023/01/20 00:06:08;;;;;;;19.00;9.10;;;2.50;99.90;;;;;;5062958;28;20048;-69
2023/01/20 00:08:35;;;;;;;21.35;10.15;;;2.60;99.90;;;;;;5071851;28;20075;-69
2023/01/20 00:11:05;;;;;;;18.95;10.27;;;2.70;99.90;;;;;;5056403;28;20056;-69
2023/01/20 00:13:31;;;;;;;22.02;9.95;;;2.80;99.90;;;;;;5059504;28;20025;-69
2023/01/20 00:15:57;;;;;;;14.48;7.03;;;2.80;99.90;;;;;;5057028;28;20025;-69
2023/01/20 00:18:22;;;;;;;20.45;8.57;;;2.90;99.90;;;;;;5069439;28;20424;-70
2023/01/20 00:20:48;;;;;;;17.42;7.95;;;2.90;99.90;;;;;;5064011;28;20085;-69
2023/01/20 00:23:14;;;;;;;12.93;5.70;;;2.90;99.90;;;;;;5066751;28;20448;-68
2023/01/20 00:25:39;;;;;;;14.80;5.35;;;2.80;99.90;;;;;;5059737;28;20457;-69
2023/01/20 00:28:05;;;;;;;16.02;5.93;;;2.80;99.90;;;;;;5068256;28;20387;-69
2023/01/20 00:30:30;;;;;;;12.35;5.00;;;2.80;99.90;;;;;;5056328;28;20509;-70
2023/01/20 00:32:56;;;;;;;21.58;5.60;;;2.80;99.90;;;;;;5072226;28;20358;-68
2023/01/20 00:35:21;;;;;;;10.95;4.72;;;2.80;99.90;;;;;;5045024;28;20112;-68
2023/01/20 00:37:47;;;;;;;9.90;3.85;;;2.70;99.90;;;;;;5065908;28;20050;-68
2023/01/20 00:40:13;;;;;;;11.50;4.35;;;2.70;99.90;;;;;;5057940;28;20029;-69
2023/01/20 00:42:38;;;;;;;6.75;3.53;;;2.70;99.90;;;;;;5056219;28;20353;-69
2023/01/20 00:45:04;;;;;;;7.65;3.20;;;2.70;99.90;;;;;;5065504;28;20029;-68
2023/01/20 00:47:30;;;;;;;6.32;2.80;;;2.60;99.90;;;;;;5062892;28;20040;-69
2023/01/20 00:49:55;;;;;;;10.57;3.45;;;2.60;99.90;;;;;;5074129;28;20120;-70
2023/01/20 00:52:21;;;;;;;5.63;2.58;;;2.50;99.90;;;;;;5056465;28;20029;-69
2023/01/20 00:54:47;;;;;;;8.55;2.70;;;2.40;99.90;;;;;;5068982;28;20025;-69
2023/01/20 00:57:12;;;;;;;6.20;2.80;;;2.40;99.90;;;;;;5063792;28;20103;-68
2023/01/20 00:59:38;;;;;;;7.72;3.28;;;2.40;99.90;;;;;;5078150;28;20491;-69
2023/01/20 01:02:03;;;;;;;6.38;3.40;;;2.40;99.90;;;;;;5057583;28;20513;-68
2023/01/20 01:04:29;;;;;;;10.38;4.53;;;2.40;99.90;;;;;;5068875;28;20032;-70
2023/01/20 01:06:55;;;;;;;8.43;2.58;;;2.40;99.90;;;;;;5040303;28;20036;-68
2023/01/20 01:09:21;;;;;;;8.15;2.92;;;2.40;99.90;;;;;;5070495;28;20373;-70
2023/01/20 01:11:47;;;;;;;7.68;3.20;;;2.30;99.90;;;;;;5059089;28;20032;-69
2023/01/20 01:14:13;;;;;;;8.45;3.63;;;2.30;99.90;;;;;;5058313;28;20044;-69
2023/01/20 01:16:38;;;;;;;9.93;3.65;;;2.40;99.90;;;;;;5052637;28;20032;-68
2023/01/20 01:19:04;;;;;;;8.18;3.40;;;2.40;99.90;;;;;;5052161;28;20401;-70
2023/01/20 01:21:30;;;;;;;6.07;2.80;;;2.40;99.90;;;;;;5052711;28;20071;-70
2023/01/20 01:23:55;;;;;;;9.63;3.40;;;2.40;99.90;;;;;;5052825;28;20299;-69
2023/01/20 01:26:21;;;;;;;5.63;2.97;;;2.40;99.90;;;;;;5052318;28;20040;-68
2023/01/20 01:28:47;;;;;;;8.48;2.70;;;2.40;99.90;;;;;;5052138;28;20087;-68
2023/01/20 01:31:14;;;;;;;9.43;3.10;;;2.40;99.90;;;;;;5056004;28;20033;-69
2023/01/20 01:33:39;;;;;;;6.40;2.90;;;2.40;99.90;;;;;;5041186;28;20492;-69
2023/01/20 01:36:07;;;;;;;15.00;3.95;;;2.40;99.90;;;;;;5063299;28;20040;-69
2023/01/20 01:38:33;;;;;;;7.97;3.15;;;2.40;99.90;;;;;;5079231;28;20028;-68
2023/01/20 01:40:59;;;;;;;8.45;3.60;;;2.40;99.90;;;;;;5079117;28;20345;-69
2023/01/20 01:43:28;;;;;;;9.73;4.10;;;2.40;99.90;;;;;;5077628;28;20058;-67
2023/01/20 01:45:53;;;;;;;13.52;5.22;;;2.30;99.90;;;;;;5078689;28;20029;-68
2023/01/20 01:48:26;;;;;;;16.38;5.75;;;2.30;99.90;;;;;;5075451;28;20396;-69
2023/01/20 01:50:56;;;;;;;16.20;6.80;;;2.30;99.90;;;;;;5062600;28;20419;-68
2023/01/20 01:53:23;;;;;;;21.05;8.43;;;2.30;99.90;;;;;;5070177;28;20013;-69
2023/01/20 01:55:56;;;;;;;24.30;11.23;;;2.30;99.90;;;;;;5070353;28;20024;-69
2023/01/20 01:58:29;;;;;;;24.90;10.80;;;2.30;99.90;;;;;;5061579;28;20083;-69
2023/01/20 02:00:54;;;;;;;28.15;9.65;;;2.30;99.90;;;;;;5076215;28;20199;-69
2023/01/20 02:03:21;;;;;;;27.13;11.15;;;2.30;99.90;;;;;;5078577;28;20124;-69
2023/01/20 02:05:50;;;;;;;28.65;12.55;;;2.30;99.90;;;;;;5066823;28;20047;-68
2023/01/20 02:08:16;;;;;;;31.30;15.15;;;2.30;99.90;;;;;;5074033;28;20083;-69
2023/01/20 02:10:42;;;;;;;30.13;14.70;;;2.20;99.90;;;;;;5094093;28;20035;-67
2023/01/20 02:13:08;;;;;;;29.00;12.65;;;2.20;99.90;;;;;;5072110;28;20024;-68
2023/01/20 02:15:54;;;;;;;35.58;17.33;;;2.20;99.90;;;;;;5068602;28;20107;-68
2023/01/20 02:18:35;;;;;;;37.45;16.58;;;2.10;99.90;;;;;;5062031;28;20401;-68
2023/01/20 02:21:15;;;;;;;40.67;18.25;;;2.10;99.90;;;;;;5063708;28;20016;-68
2023/01/20 02:24:29;;;;;;;42.28;18.67;;;2.10;99.90;;;;;;5067493;28;20103;-67
2023/01/20 02:27:01;;;;;;;44.42;21.48;;;2.00;99.90;;;;;;5063316;28;20159;-69
2023/01/20 02:29:51;;;;;;;40.38;18.88;;;2.00;99.90;;;;;;5071422;28;20491;-67
2023/01/20 02:32:47;;;;;;;45.67;21.25;;;2.00;99.90;;;;;;5072318;28;20072;-69
2023/01/20 02:35:19;;;;;;;34.95;16.83;;;2.00;99.90;;;;;;5072342;28;20017;-69
2023/01/20 02:38:03;;;;;;;45.28;21.38;;;2.00;99.90;;;;;;5077928;28;20028;-69
2023/01/20 02:40:40;;;;;;;46.28;21.88;;;2.00;99.90;;;;;;5059839;28;20411;-68
2023/01/20 02:43:24;;;;;;;47.10;21.05;;;2.00;99.90;;;;;;5060589;28;20040;-68
2023/01/20 02:46:01;;;;;;;45.53;19.52;;;2.00;99.90;;;;;;5058516;28;20563;-67
2023/01/20 02:48:29;;;;;;;43.30;21.00;;;2.00;99.90;;;;;;5065942;28;20048;-71
2023/01/20 02:51:11;;;;;;;41.13;18.85;;;2.00;99.90;;;;;;5067915;28;20033;-67
2023/01/20 02:53:47;;;;;;;47.63;20.73;;;2.00;99.90;;;;;;5069770;28;20040;-68
2023/01/20 02:56:14;;;;;;;46.28;21.40;;;2.00;99.90;;;;;;5069508;28;20397;-68
2023/01/20 02:58:51;;;;;;;46.90;22.88;;;2.00;99.90;;;;;;5064057;28;20116;-69
2023/01/20 03:01:43;;;;;;;48.30;22.20;;;2.10;99.90;;;;;;5070820;28;20040;-68
2023/01/20 03:04:14;;;;;;;52.92;22.50;;;2.00;99.90;;;;;;5070889;28;20039;-68
2023/01/20 03:06:46;;;;;;;51.30;22.35;;;2.10;99.90;;;;;;5073690;28;20048;-68
2023/01/20 03:09:15;;;;;;;46.63;19.88;;;2.10;99.90;;;;;;5074245;28;20032;-68
2023/01/20 03:11:46;;;;;;;44.08;19.45;;;2.10;99.90;;;;;;5068776;28;20058;-69
2023/01/20 03:14:14;;;;;;;45.95;20.75;;;2.10;99.90;;;;;;5067314;28;20071;-69
2023/01/20 03:16:40;;;;;;;48.88;19.35;;;2.10;99.90;;;;;;5064774;28;20094;-68
2023/01/20 03:19:06;;;;;;;52.20;21.15;;;2.10;99.90;;;;;;5059372;28;21236;-69
2023/01/20 03:21:33;;;;;;;48.33;22.52;;;2.10;99.90;;;;;;5069465;28;20039;-68
2023/01/20 03:24:01;;;;;;;42.35;19.35;;;2.10;99.90;;;;;;5059261;28;20542;-68
2023/01/20 03:26:27;;;;;;;44.35;19.17;;;2.20;99.90;;;;;;5065107;28;20107;-68
2023/01/20 03:28:55;;;;;;;49.70;22.08;;;2.10;99.90;;;;;;5066481;28;20116;-68
2023/01/20 03:31:25;;;;;;;43.15;21.35;;;2.20;99.90;;;;;;5069436;28;20078;-68
2023/01/20 03:33:53;;;;;;;47.45;20.77;;;2.20;99.90;;;;;;5057642;28;20013;-67
2023/01/20 03:36:22;;;;;;;44.25;19.42;;;2.30;99.90;;;;;;5066137;28;20021;-68
2023/01/20 03:38:48;;;;;;;43.53;19.27;;;2.30;99.90;;;;;;5069824;28;20024;-68
2023/01/20 03:41:34;;;;;;;41.05;18.63;;;2.30;99.90;;;;;;5058206;28;20025;-68
2023/01/20 03:44:18;;;;;;;43.58;19.27;;;2.40;99.90;;;;;;5058327;28;20384;-69
2023/01/20 03:46:46;;;;;;;43.05;19.25;;;2.50;99.90;;;;;;5067487;28;20047;-66
2023/01/20 03:49:27;;;;;;;41.33;18.40;;;2.60;99.90;;;;;;5073408;28;20475;-68
2023/01/20 03:52:01;;;;;;;38.85;17.00;;;2.60;99.90;;;;;;5058108;28;20031;-67
2023/01/20 03:54:35;;;;;;;42.42;19.60;;;2.70;99.90;;;;;;5064374;28;20116;-68
2023/01/20 03:57:08;;;;;;;38.50;18.20;;;2.70;99.90;;;;;;5067185;28;20027;-69
2023/01/20 03:59:37;;;;;;;38.55;16.35;;;2.80;99.90;;;;;;5060462;28;20520;-69
2023/01/20 04:02:06;;;;;;;33.60;15.85;;;2.80;99.90;;;;;;5053469;28;20400;-69
2023/01/20 04:04:35;;;;;;;38.30;17.80;;;2.80;99.90;;;;;;5035801;28;20059;-69
2023/01/20 04:07:04;;;;;;;36.35;14.77;;;2.70;99.90;;;;;;5053414;28;20124;-69
2023/01/20 04:09:34;;;;;;;34.78;15.25;;;2.70;99.90;;;;;;5053623;28;20025;-69
2023/01/20 04:12:00;;;;;;;34.28;15.35;;;2.70;99.90;;;;;;5053636;28;20375;-69
2023/01/20 04:14:25;;;;;;;33.30;14.90;;;2.80;99.90;;;;;;5053321;28;20025;-69
2023/01/20 04:16:54;;;;;;;32.83;14.45;;;2.80;99.90;;;;;;5053317;28;20481;-69
2023/01/20 04:19:20;;;;;;;31.77;13.10;;;2.80;99.90;;;;;;5053341;28;20036;-69
2023/01/20 04:21:52;;;;;;;26.60;11.63;;;2.90;99.90;;;;;;5053404;28;20029;-68
2023/01/20 04:24:51;;;;;;;30.65;12.23;;;2.90;99.90;;;;;;5053803;28;20462;-69
2023/01/20 04:27:16;;;;;;;26.52;11.55;;;2.90;99.90;;;;;;5016977;28;20053;-69
2023/01/20 04:29:42;;;;;;;29.27;11.82;;;2.90;99.90;;;;;;5053154;28;20029;-69
2023/01/20 04:32:10;;;;;;;30.17;11.57;;;2.80;99.90;;;;;;5056121;28;20028;-69
2023/01/20 04:34:35;;;;;;;26.40;11.38;;;2.80;99.90;;;;;;5060157;28;20597;-69
2023/01/20 04:37:01;;;;;;;30.05;10.18;;;2.80;99.90;;;;;;5068524;28;20111;-70
2023/01/20 04:39:26;;;;;;;25.63;9.43;;;2.80;99.90;;;;;;5060828;28;20107;-70
2023/01/20 04:41:52;;;;;;;21.63;7.80;;;2.70;99.90;;;;;;5073068;28;20151;-69
2023/01/20 04:44:17;;;;;;;27.48;9.88;;;2.80;99.90;;;;;;5072790;28;20389;-69
2023/01/20 04:46:44;;;;;;;23.95;8.55;;;2.70;99.90;;;;;;5072867;28;20048;-70
2023/01/20 04:49:09;;;;;;;27.05;10.00;;;2.70;99.90;;;;;;5062993;28;20139;-69
2023/01/20 04:51:35;;;;;;;23.67;10.43;;;2.70;99.90;;;;;;5052813;28;20518;-69
2023/01/20 04:54:01;;;;;;;29.95;10.68;;;2.70;99.90;;;;;;5052881;28;20045;-69
2023/01/20 04:56:26;;;;;;;26.92;10.82;;;2.70;99.90;;;;;;5053400;28;20043;-69
2023/01/20 04:58:52;;;;;;;29.15;11.07;;;2.70;99.90;;;;;;5053799;28;20031;-69
2023/01/20 05:01:18;;;;;;;29.42;12.13;;;2.70;99.90;;;;;;5070441;28;20028;-70
2023/01/20 05:03:43;;;;;;;27.50;11.43;;;2.70;99.90;;;;;;5072870;28;20032;-70
2023/01/20 05:06:10;;;;;;;27.77;11.23;;;2.70;99.90;;;;;;5072046;28;20021;-70
2023/01/20 05:08:35;;;;;;;33.03;12.07;;;2.70;99.90;;;;;;5072738;28;20053;-69
2023/01/20 05:11:01;;;;;;;28.70;11.45;;;2.70;99.90;;;;;;5072895;28;20037;-70
2023/01/20 05:13:27;;;;;;;28.02;12.75;;;2.70;99.90;;;;;;5072702;28;20418;-70
2023/01/20 05:15:53;;;;;;;29.80;12.02;;;2.70;99.90;;;;;;5072817;28;20043;-70
2023/01/20 05:18:18;;;;;;;31.60;12.27;;;2.60;99.90;;;;;;5071072;28;20051;-70
2023/01/20 05:20:45;;;;;;;29.30;13.30;;;2.70;99.90;;;;;;5053032;28;20044;-70
2023/01/20 05:23:11;;;;;;;29.73;13.57;;;2.70;99.90;;;;;;5052635;28;20025;-70
2023/01/20 05:25:37;;;;;;;32.63;13.55;;;2.70;99.90;;;;;;5052703;28;20044;-69
2023/01/20 05:28:02;;;;;;;31.88;14.25;;;2.60;99.90;;;;;;5052166;28;20044;-71
2023/01/20 05:30:28;;;;;;;30.45;13.77;;;2.60;99.90;;;;;;5052369;28;20029;-70
2023/01/20 05:32:54;;;;;;;27.48;12.82;;;2.60;99.90;;;;;;5064679;28;20028;-71
2023/01/20 05:35:20;;;;;;;17.63;7.68;;;2.60;99.90;;;;;;5072671;28;20031;-70
2023/01/20 05:37:46;;;;;;;26.52;12.73;;;2.50;99.90;;;;;;5072813;28;20104;-70
2023/01/20 05:40:12;;;;;;;26.00;10.85;;;2.60;99.90;;;;;;5072239;28;20025;-70
2023/01/20 05:42:38;;;;;;;27.55;11.52;;;2.50;99.90;;;;;;5072310;28;20020;-69
2023/01/20 05:45:04;;;;;;;33.60;13.63;;;2.50;99.90;;;;;;5072477;28;20830;-69
2023/01/20 05:47:29;;;;;;;36.92;14.73;;;2.50;99.90;;;;;;5072326;28;20127;-70
2023/01/20 05:49:55;;;;;;;30.88;13.80;;;2.40;99.90;;;;;;5072363;28;20129;-70
2023/01/20 05:52:21;;;;;;;31.88;15.05;;;2.40;99.90;;;;;;5072327;28;20436;-70
2023/01/20 05:54:46;;;;;;;32.35;13.55;;;2.40;99.90;;;;;;5072477;28;20470;-69
2023/01/20 05:57:16;;;;;;;29.70;11.93;;;2.40;99.90;;;;;;5072065;28;20082;-69
2023/01/20 05:59:43;;;;;;;34.45;13.30;;;2.40;99.90;;;;;;5072582;28;20107;-69
2023/01/20 06:02:10;;;;;;;39.05;15.88;;;2.40;99.90;;;;;;5072387;28;20028;-69
2023/01/20 06:04:35;;;;;;;25.80;12.25;;;2.40;99.90;;;;;;5072408;28;20016;-70
2023/01/20 06:07:01;;;;;;;34.78;15.00;;;2.40;99.90;;;;;;5072206;28;20082;-70
2023/01/20 06:09:26;;;;;;;27.15;12.15;;;2.40;99.90;;;;;;5072171;28;20032;-71
2023/01/20 06:11:52;;;;;;;29.10;13.20;;;2.40;99.90;;;;;;5072428;28;20120;-69
2023/01/20 06:14:18;;;;;;;40.00;16.85;;;2.40;99.90;;;;;;5072370;28;20116;-70
2023/01/20 06:16:43;;;;;;;32.70;13.98;;;2.30;99.90;;;;;;5072216;28;20181;-70
2023/01/20 06:19:09;;;;;;;93.85;23.63;;;2.30;99.90;;;;;;5055236;28;20045;-70
2023/01/20 06:21:49;;;;;;;38.03;14.55;;;2.40;99.90;;;;;;5022492;28;20076;-71
2023/01/20 06:24:15;;;;;;;171.00;38.63;;;2.40;99.90;;;;;;5055713;28;20457;-70
2023/01/20 06:26:40;;;;;;;38.50;17.45;;;2.40;99.90;;;;;;5036662;28;20028;-70
2023/01/20 06:29:06;;;;;;;41.05;16.95;;;2.40;99.90;;;;;;5037890;28;20039;-70
2023/01/20 06:31:31;;;;;;;50.80;19.08;;;2.40;99.90;;;;;;5055595;28;20033;-69
2023/01/20 06:33:57;;;;;;;49.00;17.00;;;2.40;99.90;;;;;;5055921;28;20040;-69
2023/01/20 06:36:23;;;;;;;44.53;18.77;;;2.40;99.90;;;;;;5055365;28;20050;-69
2023/01/20 06:38:51;;;;;;;47.45;18.65;;;2.50;99.90;;;;;;5055496;28;20067;-69
2023/01/20 06:41:19;;;;;;;41.60;16.88;;;2.40;99.90;;;;;;5055471;28;20025;-69
2023/01/20 06:43:45;;;;;;;33.42;14.02;;;2.40;99.90;;;;;;5044259;28;20543;-69
2023/01/20 06:46:12;;;;;;;38.83;17.42;;;2.50;99.90;;;;;;5035657;28;20030;-68
2023/01/20 06:48:38;;;;;;;44.72;19.45;;;2.40;99.90;;;;;;5040938;28;20033;-69
2023/01/20 06:51:08;;;;;;;48.50;15.93;;;2.40;99.90;;;;;;5055394;28;20462;-68
2023/01/20 06:53:34;;;;;;;37.75;15.02;;;2.50;99.90;;;;;;5054728;28;20481;-69
2023/01/20 06:56:00;;;;;;;35.72;16.00;;;2.50;99.90;;;;;;5055304;28;20021;-68
2023/01/20 06:58:30;;;;;;;44.95;16.85;;;2.50;99.90;;;;;;5055278;28;20033;-69
2023/01/20 07:00:57;;;;;;;36.53;14.00;;;2.50;99.90;;;;;;5054959;28;20025;-70
2023/01/20 07:03:23;;;;;;;49.45;17.52;;;2.50;99.90;;;;;;5054916;28;20025;-70
2023/01/20 07:05:57;;;;;;;42.88;18.30;;;2.50;99.90;;;;;;5055438;28;20365;-69
2023/01/20 07:08:22;;;;;;;37.80;15.20;;;2.50;99.90;;;;;;5054980;28;20037;-69
2023/01/20 07:10:48;;;;;;;42.63;18.08;;;2.50;99.90;;;;;;5055172;28;20468;-69
2023/01/20 07:13:14;;;;;;;43.15;17.42;;;2.50;99.90;;;;;;5054979;28;20025;-69
2023/01/20 07:15:39;;;;;;;50.53;20.00;;;2.50;99.90;;;;;;5055061;28;20039;-69
2023/01/20 07:18:05;;;;;;;44.80;17.35;;;2.50;99.90;;;;;;5065521;28;20553;-69
2023/01/20 07:20:30;;;;;;;46.30;17.30;;;2.40;99.90;;;;;;5073914;28;20537;-69
2023/01/20 07:22:59;;;;;;;44.35;18.48;;;2.50;99.90;;;;;;5074772;28;20025;-69
2023/01/20 07:25:24;;;;;;;41.67;17.50;;;2.40;99.90;;;;;;5074697;28;20020;-68
2023/01/20 07:27:50;;;;;;;28.60;13.25;;;2.40;99.90;;;;;;5060285;28;20048;-69
2023/01/20 07:30:16;;;;;;;35.78;14.25;;;2.40;99.90;;;;;;5054392;28;20036;-70
2023/01/20 07:32:42;;;;;;;45.10;16.30;;;2.40;99.90;;;;;;5055027;28;20515;-69
2023/01/20 07:35:07;;;;;;;58.72;20.65;;;2.40;99.90;;;;;;5054351;28;20029;-69
2023/01/20 07:37:34;;;;;;;36.28;15.77;;;2.40;99.90;;;;;;5054523;28;20029;-69
2023/01/20 07:39:59;;;;;;;43.10;17.92;;;2.40;99.90;;;;;;5054547;28;20021;-69
2023/01/20 07:42:25;;;;;;;38.22;17.17;;;2.40;99.90;;;;;;5062692;28;20036;-69
2023/01/20 07:44:51;;;;;;;42.38;16.67;;;2.50;99.90;;;;;;5060559;28;20036;-68
2023/01/20 07:47:16;;;;;;;43.53;17.20;;;2.50;99.90;;;;;;5072840;28;20045;-70
2023/01/20 07:49:42;;;;;;;41.30;15.52;;;2.50;99.90;;;;;;5059160;28;20028;-69
2023/01/20 07:52:08;;;;;;;31.10;10.57;;;2.50;99.90;;;;;;5053266;28;20079;-68
2023/01/20 07:54:33;;;;;;;43.67;18.17;;;2.50;99.90;;;;;;5053810;28;20032;-68
2023/01/20 07:56:59;;;;;;;38.60;14.57;;;2.50;99.90;;;;;;5054298;28;20478;-69
2023/01/20 07:59:25;;;;;;;34.47;14.73;;;2.50;99.90;;;;;;5054413;28;20081;-70
2023/01/20 08:01:50;;;;;;;32.75;12.20;;;2.50;99.90;;;;;;5054031;28;20044;-69
2023/01/20 08:04:16;;;;;;;41.25;13.32;;;2.50;99.90;;;;;;5053439;28;20650;-70
2023/01/20 08:06:42;;;;;;;33.10;12.75;;;2.50;99.90;;;;;;5053766;28;20025;-70
2023/01/20 08:09:11;;;;;;;38.63;14.15;;;2.50;99.90;;;;;;5053909;28;20025;-71
2023/01/20 08:11:37;;;;;;;36.65;16.75;;;2.50;99.90;;;;;;5053518;28;20119;-70
2023/01/20 08:14:03;;;;;;;40.75;16.10;;;2.50;99.90;;;;;;5053700;28;20032;-70
2023/01/20 08:16:28;;;;;;;43.75;17.35;;;2.50;99.90;;;;;;5053551;28;20021;-69
2023/01/20 08:18:54;;;;;;;28.45;13.00;;;2.50;99.90;;;;;;5053732;28;20087;-69
2023/01/20 08:21:25;;;;;;;26.70;10.80;;;2.50;99.90;;;;;;5052686;28;20116;-70
2023/01/20 08:23:53;;;;;;;41.50;16.58;;;2.50;99.90;;;;;;5053131;28;20033;-70
2023/01/20 08:26:18;;;;;;;39.53;16.13;;;2.50;99.90;;;;;;5053294;28;20023;-70
2023/01/20 08:28:44;;;;;;;35.80;15.52;;;2.50;99.90;;;;;;5053618;28;20381;-69
2023/01/20 08:31:12;;;;;;;39.08;14.93;;;2.50;99.90;;;;;;5053707;28;20086;-70
2023/01/20 08:33:41;;;;;;;36.25;15.43;;;2.60;99.90;;;;;;5052955;28;20064;-70
2023/01/20 08:36:14;;;;;;;37.47;15.80;;;2.60;99.90;;;;;;5053448;28;20528;-70
2023/01/20 08:38:40;;;;;;;33.33;13.85;;;2.60;99.90;;;;;;5052828;28;20027;-70
2023/01/20 08:41:11;;;;;;;33.30;13.75;;;2.60;99.90;;;;;;5052211;28;20082;-71
2023/01/20 08:43:38;;;;;;;34.67;15.57;;;2.60;99.90;;;;;;5053172;28;20154;-70
2023/01/20 08:46:06;;;;;;;38.55;15.60;;;2.70;99.90;;;;;;5052863;28;20041;-70
2023/01/20 08:48:33;;;;;;;43.35;17.48;;;2.70;99.90;;;;;;5057402;28;20044;-70
2023/01/20 08:51:01;;;;;;;38.60;17.02;;;2.70;99.90;;;;;;5072997;28;20082;-70
2023/01/20 08:53:27;;;;;;;34.78;14.60;;;2.80;99.90;;;;;;5073107;28;20082;-69
2023/01/20 08:55:57;;;;;;;31.50;12.85;;;2.90;99.90;;;;;;5072824;28;20028;-69
2023/01/20 08:58:23;;;;;;;34.55;13.85;;;2.90;99.90;;;;;;5073006;28;20089;-69
2023/01/20 09:00:49;;;;;;;38.10;17.38;;;2.80;99.90;;;;;;5072749;28;20529;-69
2023/01/20 09:03:14;;;;;;;38.80;18.45;;;2.90;99.90;;;;;;5072909;28;20024;-69
2023/01/20 09:05:40;;;;;;;42.97;18.25;;;3.00;99.90;;;;;;5072956;28;20028;-70
2023/01/20 09:08:05;;;;;;;48.42;16.02;;;3.10;99.90;;;;;;5072873;28;20125;-68
2023/01/20 09:10:32;;;;;;;98.88;22.10;;;3.10;99.90;;;;;;5072663;28;20461;-69
2023/01/20 09:12:58;;;;;;;42.97;17.80;;;3.20;99.90;;;;;;5072998;28;20075;-69
2023/01/20 09:15:23;;;;;;;35.70;16.42;;;3.30;99.90;;;;;;5072478;28;20064;-70
2023/01/20 09:17:49;;;;;;;37.47;15.40;;;3.40;99.90;;;;;;5063675;28;20045;-69
2023/01/20 09:20:15;;;;;;;34.90;16.27;;;3.50;99.90;;;;;;5038618;28;20033;-69
2023/01/20 09:22:40;;;;;;;82.35;19.55;;;3.60;99.90;;;;;;5032836;28;20075;-70
2023/01/20 09:25:07;;;;;;;80.97;19.63;;;3.70;99.90;;;;;;5032833;28;20118;-69
2023/01/20 09:27:33;;;;;;;37.10;14.88;;;3.80;99.90;;;;;;5032579;28;20033;-69
2023/01/20 09:29:58;;;;;;;37.25;16.05;;;4.00;99.90;;;;;;5032574;28;20592;-69
2023/01/20 09:32:24;;;;;;;40.85;17.55;;;4.10;99.90;;;;;;5032691;28;20037;-70
2023/01/20 09:34:50;;;;;;;35.40;15.90;;;4.20;99.90;;;;;;5032697;28;20033;-69
2023/01/20 09:46:02;;;;;;;32.05;14.98;;;4.60;99.90;;;;;;5032647;28;20064;-69
2023/01/20 09:54:42;;;;;;;83.10;19.17;;;4.50;99.90;;;;;;5056818;28;20040;-69
2023/01/20 09:57:11;;;;;;;27.05;12.50;;;4.50;99.90;;;;;;5056233;28;20068;-69
2023/01/20 09:59:44;;;;;;;28.20;12.55;;;4.60;99.90;;;;;;5056558;28;20056;-69
2023/01/20 10:02:20;;;;;;;29.17;12.93;;;4.60;99.90;;;;;;5056518;28;20017;-70
2023/01/20 10:04:56;;;;;;;29.60;13.80;;;4.60;99.90;;;;;;5056063;28;20400;-69
2023/01/20 10:07:37;;;;;;;27.17;12.98;;;4.70;99.90;;;;;;5055738;28;20495;-69
2023/01/20 10:10:29;;;;;;;29.43;13.80;;;4.70;99.90;;;;;;5069731;28;20028;-69
2023/01/20 10:13:11;;;;;;;31.90;14.05;;;4.70;99.90;;;;;;5058226;28;20033;-67
2023/01/20 10:15:43;;;;;;;30.10;13.40;;;4.80;99.90;;;;;;5075956;28;20036;-69
2023/01/20 10:18:20;;;;;;;26.35;12.90;;;4.80;99.90;;;;;;5087953;28;20051;-68
2023/01/20 10:20:49;;;;;;;29.80;13.80;;;4.80;99.90;;;;;;5096624;28;20516;-69
2023/01/20 10:23:39;;;;;;;30.55;13.63;;;4.90;99.90;;;;;;5096207;28;20028;-70
2023/01/20 10:26:10;;;;;;;27.63;14.52;;;4.80;99.90;;;;;;5096214;28;20040;-69
2023/01/20 10:28:40;;;;;;;30.88;14.55;;;4.80;99.90;;;;;;5095995;28;20036;-69
2023/01/20 10:31:05;;;;;;;48.88;15.57;;;4.80;99.90;;;;;;5086512;28;20021;-69
2023/01/20 10:33:36;;;;;;;32.63;14.90;;;4.80;99.90;;;;;;5075927;28;20099;-69
2023/01/20 10:36:02;;;;;;;28.45;15.02;;;4.80;99.90;;;;;;5075260;28;20024;-70
2023/01/20 10:38:39;;;;;;;28.27;13.90;;;4.70;99.90;;;;;;5075500;28;20035;-70
2023/01/20 10:41:32;;;;;;;35.47;15.35;;;4.60;99.90;;;;;;5075586;28;20077;-70
2023/01/20 10:43:58;;;;;;;27.60;14.65;;;4.50;99.90;;;;;;5065493;28;20416;-70
2023/01/20 10:46:59;;;;;;;29.75;13.20;;;4.40;99.90;;;;;;5066015;28;20063;-70
2023/01/20 10:49:28;;;;;;;24.75;12.52;;;4.40;99.90;;;;;;5063497;28;20083;-70
2023/01/20 10:52:05;;;;;;;25.20;12.23;;;4.40;99.90;;;;;;5061144;28;20086;-70
2023/01/20 10:55:19;;;;;;;47.65;14.25;;;4.40;99.90;;;;;;5060337;28;20087;-70
2023/01/20 10:57:57;;;;;;;24.27;11.25;;;4.40;99.90;;;;;;5037592;28;20041;-69
2023/01/20 11:00:30;;;;;;;27.45;12.15;;;4.40;99.90;;;;;;5057763;28;20033;-69
2023/01/20 11:03:01;;;;;;;25.40;12.07;;;4.40;99.90;;;;;;5074831;28;20017;-69
2023/01/20 11:05:30;;;;;;;25.63;11.90;;;4.40;99.90;;;;;;5075059;28;20036;-70
2023/01/20 11:07:58;;;;;;;26.73;12.25;;;4.50;99.90;;;;;;5074976;28;20044;-70
2023/01/20 11:10:27;;;;;;;25.25;12.07;;;4.50;99.90;;;;;;5074618;28;20043;-70
2023/01/20 11:12:56;;;;;;;24.88;12.30;;;4.40;99.90;;;;;;5090915;28;20024;-69
2023/01/20 11:15:29;;;;;;;23.55;11.88;;;4.40;99.90;;;;;;5095158;28;20101;-69
2023/01/20 11:18:13;;;;;;;26.80;12.90;;;4.30;99.90;;;;;;5094793;28;20102;-69
2023/01/20 11:21:00;;;;;;;24.92;12.65;;;4.20;99.90;;;;;;5094889;28;20395;-70
2023/01/20 11:23:38;;;;;;;22.45;8.25;;;4.20;99.90;;;;;;5095072;28;20051;-69
2023/01/20 11:26:10;;;;;;;22.92;9.73;;;4.20;99.90;;;;;;5095095;28;20065;-70
2023/01/20 11:28:43;;;;;;;22.73;9.68;;;4.00;99.90;;;;;;5094815;28;20036;-70
2023/01/20 11:31:09;;;;;;;25.80;11.55;;;3.90;99.90;;;;;;5095056;28;20024;-70
2023/01/20 11:33:35;;;;;;;25.75;12.05;;;3.80;99.90;;;;;;5076686;28;20046;-70
2023/01/20 11:36:26;;;;;;;16.42;7.07;;;3.70;99.90;;;;;;5094846;28;20024;-70
2023/01/20 11:38:54;;;;;;;25.23;11.77;;;3.70;99.90;;;;;;5093168;28;20051;-70
2023/01/20 11:41:28;;;;;;;26.20;12.60;;;3.70;99.90;;;;;;5054561;28;20024;-70
2023/01/20 11:43:56;;;;;;;38.17;15.02;;;3.70;99.90;;;;;;5036901;28;20033;-71
2023/01/20 11:46:28;;;;;;;25.20;12.38;;;3.80;99.90;;;;;;5054431;28;20024;-70
2023/01/20 11:49:13;;;;;;;30.77;14.55;;;3.90;99.90;;;;;;5061908;28;20141;-70
2023/01/20 11:51:55;;;;;;;25.90;12.52;;;4.10;99.90;;;;;;5074114;28;20021;-70
2023/01/20 11:54:23;;;;;;;32.87;13.17;;;4.20;99.90;;;;;;5074236;28;20494;-69
2023/01/20 11:57:15;;;;;;;24.63;11.70;;;4.20;99.90;;;;;;5074116;28;20292;-70
2023/01/20 11:59:48;;;;;;;40.72;15.13;;;4.20;99.90;;;;;;5074197;28;20457;-69
2023/01/20 12:02:13;;;;;;;27.42;12.38;;;4.30;99.90;;;;;;5073791;28;20404;-69
2023/01/20 12:05:00;;;;;;;26.60;12.77;;;4.30;99.90;;;;;;5073960;28;20043;-70
2023/01/20 12:07:33;;;;;;;27.52;13.48;;;4.40;99.90;;;;;;5073214;28;20174;-70
2023/01/20 12:10:10;;;;;;;28.70;12.55;;;4.60;99.90;;;;;;5073191;28;20039;-69
2023/01/20 12:12:43;;;;;;;28.00;12.27;;;4.70;99.90;;;;;;5073705;28;20032;-70
2023/01/20 12:15:12;;;;;;;24.25;11.20;;;4.80;99.90;;;;;;5073757;28;20039;-70
2023/01/20 12:17:40;;;;;;;88.22;18.60;;;4.80;99.90;;;;;;5072789;28;20052;-69
2023/01/20 12:20:15;;;;;;;24.52;11.27;;;4.70;99.90;;;;;;5053162;28;20385;-69
2023/01/20 12:23:00;;;;;;;25.90;11.95;;;4.70;99.90;;;;;;5053947;28;20036;-69
2023/01/20 12:25:35;;;;;;;29.40;13.82;;;4.60;99.90;;;;;;5053701;28;20081;-69
2023/01/20 12:28:12;;;;;;;27.70;13.00;;;4.60;99.90;;;;;;5069327;28;20041;-69
2023/01/20 12:30:47;;;;;;;46.30;13.77;;;4.70;99.90;;;;;;5073356;28;20020;-68
2023/01/20 12:33:25;;;;;;;32.15;13.30;;;4.70;99.90;;;;;;5073289;28;20526;-69
2023/01/20 12:36:10;;;;;;;31.98;12.45;;;4.70;99.90;;;;;;5063169;28;20021;-69
2023/01/20 12:38:55;;;;;;;34.17;13.80;;;4.80;99.90;;;;;;5053505;28;20025;-68
2023/01/20 12:41:42;;;;;;;29.88;12.40;;;4.70;99.90;;;;;;5053204;28;20029;-68
2023/01/20 12:44:18;;;;;;;29.15;13.88;;;4.70;99.90;;;;;;5053168;28;20083;-69
2023/01/20 12:47:28;;;;;;;28.50;12.57;;;4.70;99.90;;;;;;5053028;28;20032;-68
2023/01/20 12:50:20;;;;;;;29.42;13.20;;;4.70;99.90;;;;;;5053006;28;20060;-69
2023/01/20 12:53:25;;;;;;;32.47;15.02;;;4.70;99.90;;;;;;5064081;28;20032;-69
2023/01/20 12:56:21;;;;;;;31.45;14.10;;;4.60;99.90;;;;;;5053399;28;20481;-69
2023/01/20 12:58:56;;;;;;;26.92;13.60;;;4.60;99.90;;;;;;5053365;28;20025;-70
2023/01/20 13:01:44;;;;;;;38.70;14.10;;;4.60;99.90;;;;;;5052000;28;20112;-70
2023/01/20 13:04:47;;;;;;;29.63;13.85;;;4.70;99.90;;;;;;5051932;28;20025;-70
2023/01/20 13:07:21;;;;;;;28.70;12.40;;;4.60;99.90;;;;;;5052578;28;20036;-70
2023/01/20 13:10:17;;;;;;;29.30;12.93;;;4.70;99.90;;;;;;5052373;28;20495;-69